createdAt,value
2018-06-30T00:00:34.531Z,21.51
2018-06-30T00:01:34.530Z,21.51
2018-06-30T00:02:34.824Z,21.51
2018-06-30T00:03:34.752Z,21.49
2018-06-30T00:04:34.763Z,21.51
2018-06-30T00:05:34.671Z,21.52
2018-06-30T00:06:34.794Z,21.5
2018-06-30T00:07:34.737Z,21.5
2018-06-30T00:08:34.901Z,21.51
2018-06-30T00:09:34.489Z,21.51
2018-06-30T00:10:34.761Z,21.51
2018-06-30T00:11:34.833Z,21.5
2018-06-30T00:12:34.801Z,21.5
2018-06-30T00:13:34.675Z,21.51
2018-06-30T00:14:34.643Z,21.52
2018-06-30T00:15:34.572Z,21.51
2018-06-30T00:16:34.640Z,21.52
2018-06-30T00:17:34.760Z,21.5
2018-06-30T00:18:34.544Z,21.52
2018-06-30T00:19:34.720Z,21.51
2018-06-30T00:20:34.528Z,21.52
2018-06-30T00:21:34.719Z,21.5
2018-06-30T00:22:34.510Z,21.5
2018-06-30T00:23:34.533Z,21.51
2018-06-30T00:24:34.738Z,21.5
2018-06-30T00:25:34.583Z,21.5
2018-06-30T00:26:34.673Z,21.51
2018-06-30T00:27:34.462Z,21.49
2018-06-30T00:28:34.451Z,21.51
2018-06-30T00:29:34.756Z,21.5
2018-06-30T00:30:34.593Z,21.5
2018-06-30T00:31:34.765Z,21.48
2018-06-30T00:32:34.699Z,21.5
2018-06-30T00:33:34.688Z,21.49
2018-06-30T00:34:34.487Z,21.5
2018-06-30T00:35:34.857Z,21.5
2018-06-30T00:36:34.462Z,21.49
2018-06-30T00:37:34.685Z,21.5
2018-06-30T00:38:34.629Z,21.48
2018-06-30T00:39:34.752Z,21.49
2018-06-30T00:40:34.701Z,21.5
2018-06-30T00:41:34.786Z,21.49
2018-06-30T00:42:34.862Z,21.5
2018-06-30T00:43:34.876Z,21.5
2018-06-30T00:44:34.562Z,21.49
2018-06-30T00:45:34.788Z,21.5
2018-06-30T00:46:34.571Z,21.49
2018-06-30T00:47:34.473Z,21.48
2018-06-30T00:48:35.337Z,21.48
2018-06-30T00:49:34.797Z,21.49
2018-06-30T00:50:34.661Z,21.47
2018-06-30T00:51:34.731Z,21.49
2018-06-30T00:52:34.748Z,21.49
2018-06-30T00:53:34.655Z,21.5
2018-06-30T00:54:34.527Z,21.49
2018-06-30T00:55:34.641Z,21.49
2018-06-30T00:56:34.516Z,21.5
2018-06-30T00:57:34.794Z,21.49
2018-06-30T00:58:34.467Z,21.47
2018-06-30T00:59:34.827Z,21.5
2018-06-30T01:00:34.478Z,21.49
2018-06-30T01:01:34.717Z,21.49
2018-06-30T01:02:34.688Z,21.49
2018-06-30T01:03:34.759Z,21.48
2018-06-30T01:04:34.560Z,21.49
2018-06-30T01:05:34.524Z,21.49
2018-06-30T01:06:34.684Z,21.49
2018-06-30T01:07:34.859Z,21.49
2018-06-30T01:08:34.650Z,21.48
2018-06-30T01:09:34.794Z,21.49
2018-06-30T01:10:34.537Z,21.49
2018-06-30T01:11:34.813Z,21.49
2018-06-30T01:12:34.539Z,21.49
2018-06-30T01:13:34.642Z,21.49
2018-06-30T01:14:34.476Z,21.49
2018-06-30T01:15:34.684Z,21.5
2018-06-30T01:16:34.540Z,21.49
2018-06-30T01:17:34.768Z,21.48
2018-06-30T01:18:34.701Z,21.48
2018-06-30T01:19:34.678Z,21.47
2018-06-30T01:20:34.896Z,21.48
2018-06-30T01:21:34.630Z,21.49
2018-06-30T01:22:34.761Z,21.48
2018-06-30T01:23:34.482Z,21.46
2018-06-30T01:24:34.530Z,21.46
2018-06-30T01:25:34.676Z,21.49
2018-06-30T01:26:34.452Z,21.49
2018-06-30T01:27:34.520Z,21.49
2018-06-30T01:28:34.505Z,21.49
2018-06-30T01:29:34.720Z,21.49
2018-06-30T01:30:34.531Z,21.48
2018-06-30T01:31:34.461Z,21.49
2018-06-30T01:32:34.517Z,21.49
2018-06-30T01:33:34.692Z,21.49
2018-06-30T01:34:34.703Z,21.49
2018-06-30T01:35:34.518Z,21.48
2018-06-30T01:36:34.736Z,21.46
2018-06-30T01:37:34.624Z,21.47
2018-06-30T01:38:34.541Z,21.46
2018-06-30T01:39:34.690Z,21.48
2018-06-30T01:40:34.452Z,21.48
2018-06-30T01:41:34.659Z,21.49
2018-06-30T01:42:34.853Z,21.5
2018-06-30T01:43:34.466Z,21.48
2018-06-30T01:44:34.720Z,21.48
2018-06-30T01:45:34.746Z,21.45
2018-06-30T01:46:34.810Z,21.49
2018-06-30T01:47:34.746Z,21.46
2018-06-30T01:48:34.868Z,21.47
2018-06-30T01:49:34.545Z,21.47
2018-06-30T01:50:34.700Z,21.47
2018-06-30T01:51:34.524Z,21.48
2018-06-30T01:53:10.174Z,21.45
2018-06-30T01:53:34.524Z,21.48
2018-06-30T01:54:34.759Z,21.46
2018-06-30T01:55:34.456Z,21.46
2018-06-30T01:56:34.853Z,21.48
2018-06-30T01:57:34.805Z,21.47
2018-06-30T01:58:34.595Z,21.47
2018-06-30T01:59:34.794Z,21.47
2018-06-30T02:00:34.575Z,21.47
2018-06-30T02:01:34.585Z,21.45
2018-06-30T02:02:34.542Z,21.45
2018-06-30T02:03:34.558Z,21.49
2018-06-30T02:04:34.535Z,21.47
2018-06-30T02:05:34.711Z,21.47
2018-06-30T02:06:34.761Z,21.46
2018-06-30T02:07:34.778Z,21.48
2018-06-30T02:08:34.793Z,21.48
2018-06-30T02:09:34.547Z,21.46
2018-06-30T02:10:34.557Z,21.48
2018-06-30T02:11:34.879Z,21.46
2018-06-30T02:12:34.700Z,21.47
2018-06-30T02:13:44.920Z,21.46
2018-06-30T02:14:34.757Z,21.46
2018-06-30T02:15:34.688Z,21.46
2018-06-30T02:16:34.518Z,21.47
2018-06-30T02:17:34.764Z,21.48
2018-06-30T02:18:34.466Z,21.48
2018-06-30T02:19:34.574Z,21.48
2018-06-30T02:20:34.462Z,21.46
2018-06-30T02:21:35.031Z,21.46
2018-06-30T02:22:34.686Z,21.46
2018-06-30T02:23:34.799Z,21.46
2018-06-30T02:24:34.554Z,21.47
2018-06-30T02:25:34.853Z,21.45
2018-06-30T02:26:34.850Z,21.46
2018-06-30T02:27:34.448Z,21.46
2018-06-30T02:28:34.808Z,21.45
2018-06-30T02:29:34.725Z,21.45
2018-06-30T02:30:34.550Z,21.46
2018-06-30T02:31:34.650Z,21.46
2018-06-30T02:32:34.872Z,21.46
2018-06-30T02:33:34.589Z,21.46
2018-06-30T02:34:34.508Z,21.47
2018-06-30T02:35:34.871Z,21.47
2018-06-30T02:36:34.629Z,21.45
2018-06-30T02:37:34.706Z,21.45
2018-06-30T02:38:34.467Z,21.47
2018-06-30T02:39:34.685Z,21.46
2018-06-30T02:40:34.596Z,21.46
2018-06-30T02:41:34.501Z,21.46
2018-06-30T02:42:34.626Z,21.47
2018-06-30T02:43:34.695Z,21.46
2018-06-30T02:44:34.466Z,21.46
2018-06-30T02:45:34.707Z,21.45
2018-06-30T02:46:34.679Z,21.45
2018-06-30T02:47:34.466Z,21.47
2018-06-30T02:48:34.784Z,21.45
2018-06-30T02:49:34.624Z,21.45
2018-06-30T02:50:34.461Z,21.45
2018-06-30T02:51:34.526Z,21.44
2018-06-30T02:52:34.816Z,21.44
2018-06-30T02:53:34.745Z,21.46
2018-06-30T02:54:34.489Z,21.43
2018-06-30T02:55:34.616Z,21.45
2018-06-30T02:56:34.540Z,21.46
2018-06-30T02:57:34.635Z,21.45
2018-06-30T02:58:34.514Z,21.46
2018-06-30T02:59:34.780Z,21.44
2018-06-30T03:00:34.783Z,21.46
2018-06-30T03:01:34.632Z,21.46
2018-06-30T03:02:34.803Z,21.44
2018-06-30T03:03:34.545Z,21.43
2018-06-30T03:04:34.619Z,21.45
2018-06-30T03:05:34.717Z,21.46
2018-06-30T03:06:34.850Z,21.45
2018-06-30T03:07:34.559Z,21.46
2018-06-30T03:08:34.732Z,21.45
2018-06-30T03:09:34.779Z,21.46
2018-06-30T03:10:34.556Z,21.43
2018-06-30T03:11:34.718Z,21.43
2018-06-30T03:12:34.598Z,21.45
2018-06-30T03:13:34.697Z,21.43
2018-06-30T03:14:34.770Z,21.44
2018-06-30T03:15:34.584Z,21.45
2018-06-30T03:16:34.790Z,21.45
2018-06-30T03:17:34.508Z,21.47
2018-06-30T03:18:34.707Z,21.43
2018-06-30T03:19:34.537Z,21.43
2018-06-30T03:20:34.788Z,21.45
2018-06-30T03:21:34.475Z,21.46
2018-06-30T03:22:34.619Z,21.45
2018-06-30T03:23:34.859Z,21.46
2018-06-30T03:24:34.626Z,21.44
2018-06-30T03:25:34.468Z,21.46
2018-06-30T03:26:34.818Z,21.45
2018-06-30T03:27:34.716Z,21.45
2018-06-30T03:28:34.665Z,21.46
2018-06-30T03:29:34.541Z,21.45
2018-06-30T03:30:34.472Z,21.45
2018-06-30T03:31:34.968Z,21.43
2018-06-30T03:32:34.688Z,21.43
2018-06-30T03:33:34.500Z,21.43
2018-06-30T03:34:34.430Z,21.43
2018-06-30T03:35:34.826Z,21.45
2018-06-30T03:36:34.645Z,21.46
2018-06-30T03:37:34.501Z,21.46
2018-06-30T03:38:34.859Z,21.44
2018-06-30T03:39:34.685Z,21.45
2018-06-30T03:40:34.546Z,21.43
2018-06-30T03:41:34.398Z,21.43
2018-06-30T03:42:34.616Z,21.44
2018-06-30T03:43:34.357Z,21.42
2018-06-30T03:44:34.549Z,21.42
2018-06-30T03:45:34.647Z,21.46
2018-06-30T03:46:34.713Z,21.44
2018-06-30T03:47:34.521Z,21.43
2018-06-30T03:48:34.490Z,21.44
2018-06-30T03:49:34.583Z,21.44
2018-06-30T03:50:34.421Z,21.46
2018-06-30T03:51:34.652Z,21.43
2018-06-30T03:52:34.421Z,21.44
2018-06-30T03:53:34.527Z,21.45
2018-06-30T03:54:34.486Z,21.44
2018-06-30T03:55:34.389Z,21.44
2018-06-30T03:56:34.484Z,21.44
2018-06-30T03:57:34.537Z,21.44
2018-06-30T03:58:34.620Z,21.43
2018-06-30T03:59:34.613Z,21.44
2018-06-30T04:00:34.574Z,21.44
2018-06-30T04:01:34.468Z,21.43
2018-06-30T04:02:34.608Z,21.44
2018-06-30T04:03:34.625Z,21.45
2018-06-30T04:04:34.699Z,21.45
2018-06-30T04:05:34.615Z,21.44
2018-06-30T04:06:34.739Z,21.44
2018-06-30T04:07:34.693Z,21.43
2018-06-30T04:08:34.619Z,21.42
2018-06-30T04:09:34.550Z,21.44
2018-06-30T04:10:34.453Z,21.43
2018-06-30T04:11:34.515Z,21.44
2018-06-30T04:12:34.528Z,21.44
2018-06-30T04:13:34.501Z,21.44
2018-06-30T04:14:34.725Z,21.44
2018-06-30T04:15:34.631Z,21.44
2018-06-30T04:16:34.810Z,21.42
2018-06-30T04:17:34.451Z,21.42
2018-06-30T04:18:34.527Z,21.44
2018-06-30T04:19:34.437Z,21.42
2018-06-30T04:20:34.721Z,21.44
2018-06-30T04:21:34.537Z,21.43
2018-06-30T04:22:34.681Z,21.42
2018-06-30T04:23:34.601Z,21.43
2018-06-30T04:24:34.539Z,21.42
2018-06-30T04:25:35.075Z,21.43
2018-06-30T04:26:34.576Z,21.42
2018-06-30T04:27:34.700Z,21.43
2018-06-30T04:28:34.522Z,21.42
2018-06-30T04:29:34.650Z,21.42
2018-06-30T04:30:34.436Z,21.43
2018-06-30T04:31:34.535Z,21.42
2018-06-30T04:32:34.556Z,21.42
2018-06-30T04:33:34.668Z,21.42
2018-06-30T04:34:34.554Z,21.42
2018-06-30T04:35:34.380Z,21.43
2018-06-30T04:36:34.391Z,21.42
2018-06-30T04:37:34.599Z,21.42
2018-06-30T04:38:34.569Z,21.4
2018-06-30T04:39:34.486Z,21.42
2018-06-30T04:40:34.524Z,21.42
2018-06-30T04:41:34.422Z,21.4
2018-06-30T04:42:34.601Z,21.4
2018-06-30T04:43:34.630Z,21.43
2018-06-30T04:44:34.520Z,21.42
2018-06-30T04:45:34.654Z,21.44
2018-06-30T04:46:34.770Z,21.43
2018-06-30T04:47:34.675Z,21.42
2018-06-30T04:48:34.432Z,21.43
2018-06-30T04:49:34.519Z,21.42
2018-06-30T04:50:34.483Z,21.4
2018-06-30T04:51:34.434Z,21.39
2018-06-30T04:52:34.531Z,21.43
2018-06-30T04:53:34.501Z,21.43
2018-06-30T04:54:34.720Z,21.43
2018-06-30T04:55:34.564Z,21.4
2018-06-30T04:56:34.643Z,21.42
2018-06-30T04:57:34.804Z,21.39
2018-06-30T04:58:34.503Z,21.39
2018-06-30T04:59:34.469Z,21.4
2018-06-30T05:00:34.495Z,21.39
2018-06-30T05:01:34.635Z,21.42
2018-06-30T05:02:34.586Z,21.43
2018-06-30T05:03:34.714Z,21.4
2018-06-30T05:04:34.553Z,21.42
2018-06-30T05:05:34.599Z,21.39
2018-06-30T05:06:34.533Z,21.43
2018-06-30T05:07:34.526Z,21.42
2018-06-30T05:08:34.460Z,21.39
2018-06-30T05:09:34.541Z,21.42
2018-06-30T05:10:34.615Z,21.42
2018-06-30T05:11:34.531Z,21.39
2018-06-30T05:12:34.509Z,21.4
2018-06-30T05:13:34.407Z,21.4
2018-06-30T05:14:34.757Z,21.39
2018-06-30T05:15:34.847Z,21.4
2018-06-30T05:16:34.563Z,21.42
2018-06-30T05:17:34.387Z,21.39
2018-06-30T05:18:34.550Z,21.4
2018-06-30T05:19:34.524Z,21.42
2018-06-30T05:20:34.777Z,21.42
2018-06-30T05:21:34.560Z,21.42
2018-06-30T05:22:34.632Z,21.43
2018-06-30T05:23:34.521Z,21.39
2018-06-30T05:24:34.507Z,21.4
2018-06-30T05:25:34.549Z,21.4
2018-06-30T05:26:34.418Z,21.4
2018-06-30T05:27:34.756Z,21.42
2018-06-30T05:28:34.588Z,21.42
2018-06-30T05:29:34.620Z,21.42
2018-06-30T05:30:34.628Z,21.39
2018-06-30T05:31:34.400Z,21.42
2018-06-30T05:32:34.513Z,21.4
2018-06-30T05:33:35.138Z,21.42
2018-06-30T05:34:34.455Z,21.42
2018-06-30T05:35:44.515Z,21.39
2018-06-30T05:36:34.569Z,21.4
2018-06-30T05:37:34.434Z,21.42
2018-06-30T05:38:34.588Z,21.39
2018-06-30T05:39:34.490Z,21.4
2018-06-30T05:40:34.425Z,21.39
2018-06-30T05:41:34.628Z,21.43
2018-06-30T05:42:34.486Z,21.42
2018-06-30T05:43:34.508Z,21.39
2018-06-30T05:44:34.774Z,21.39
2018-06-30T05:45:34.760Z,21.39
2018-06-30T05:46:34.737Z,21.42
2018-06-30T05:47:34.524Z,21.4
2018-06-30T05:48:34.519Z,21.4
2018-06-30T05:49:34.349Z,21.39
2018-06-30T05:50:34.451Z,21.39
2018-06-30T05:51:34.739Z,21.4
2018-06-30T05:52:34.802Z,21.4
2018-06-30T05:53:34.552Z,21.42
2018-06-30T05:54:34.712Z,21.4
2018-06-30T05:55:34.571Z,21.39
2018-06-30T05:56:34.759Z,21.39
2018-06-30T05:57:34.393Z,21.4
2018-06-30T05:58:34.406Z,21.42
2018-06-30T05:59:34.520Z,21.39
2018-06-30T06:00:34.496Z,21.39
2018-06-30T06:01:34.569Z,21.4
2018-06-30T06:02:34.745Z,21.39
2018-06-30T06:03:34.491Z,21.4
2018-06-30T06:04:34.589Z,21.39
2018-06-30T06:05:34.665Z,21.39
2018-06-30T06:06:34.590Z,21.39
2018-06-30T06:07:34.405Z,21.39
2018-06-30T06:08:34.588Z,21.39
2018-06-30T06:09:34.547Z,21.39
2018-06-30T06:10:34.560Z,21.39
2018-06-30T06:11:34.689Z,21.4
2018-06-30T06:12:34.641Z,21.39
2018-06-30T06:13:34.654Z,21.39
2018-06-30T06:14:34.435Z,21.37
2018-06-30T06:15:34.500Z,21.39
2018-06-30T06:16:34.535Z,21.39
2018-06-30T06:17:34.607Z,21.4
2018-06-30T06:18:34.394Z,21.38
2018-06-30T06:19:34.544Z,21.39
2018-06-30T06:20:34.817Z,21.4
2018-06-30T06:21:34.584Z,21.4
2018-06-30T06:22:34.814Z,21.39
2018-06-30T06:23:34.486Z,21.42
2018-06-30T06:24:34.561Z,21.39
2018-06-30T06:25:34.580Z,21.38
2018-06-30T06:26:34.479Z,21.39
2018-06-30T06:27:35.200Z,21.39
2018-06-30T06:28:34.422Z,21.4
2018-06-30T06:29:34.392Z,21.42
2018-06-30T06:30:34.523Z,21.4
2018-06-30T06:31:34.573Z,21.39
2018-06-30T06:32:35.078Z,21.4
2018-06-30T06:33:34.646Z,21.39
2018-06-30T06:34:35.085Z,21.4
2018-06-30T06:35:34.591Z,21.39
2018-06-30T06:36:34.694Z,21.37
2018-06-30T06:37:34.760Z,21.39
2018-06-30T06:38:34.388Z,21.38
2018-06-30T06:39:34.586Z,21.39
2018-06-30T06:40:34.552Z,21.4
2018-06-30T06:41:34.851Z,21.39
2018-06-30T06:42:34.678Z,21.4
2018-06-30T06:43:34.536Z,21.4
2018-06-30T06:44:34.737Z,21.4
2018-06-30T06:45:34.439Z,21.39
2018-06-30T06:46:34.776Z,21.42
2018-06-30T06:47:34.402Z,21.4
2018-06-30T06:48:34.426Z,21.39
2018-06-30T06:49:34.462Z,21.4
2018-06-30T06:50:34.724Z,21.4
2018-06-30T06:51:34.424Z,21.39
2018-06-30T06:52:34.458Z,21.39
2018-06-30T06:53:34.637Z,21.42
2018-06-30T06:54:34.631Z,21.4
2018-06-30T06:55:34.577Z,21.4
2018-06-30T06:56:34.479Z,21.39
2018-06-30T06:57:34.652Z,21.37
2018-06-30T06:58:34.532Z,21.4
2018-06-30T06:59:34.785Z,21.4
2018-06-30T07:00:34.568Z,21.4
2018-06-30T07:01:34.704Z,21.39
2018-06-30T07:02:34.489Z,21.4
2018-06-30T07:03:34.563Z,21.4
2018-06-30T07:04:34.640Z,21.39
2018-06-30T07:05:34.377Z,21.39
2018-06-30T07:06:34.382Z,21.39
2018-06-30T07:07:34.619Z,21.4
2018-06-30T07:08:34.726Z,21.39
2018-06-30T07:09:34.482Z,21.39
2018-06-30T07:10:34.593Z,21.39
2018-06-30T07:11:34.575Z,21.42
2018-06-30T07:12:34.714Z,21.4
2018-06-30T07:13:34.784Z,21.42
2018-06-30T07:14:34.365Z,21.42
2018-06-30T07:15:34.455Z,21.39
2018-06-30T07:16:34.545Z,21.39
2018-06-30T07:17:34.494Z,21.4
2018-06-30T07:18:34.592Z,21.39
2018-06-30T07:19:34.610Z,21.4
2018-06-30T07:20:34.456Z,21.4
2018-06-30T07:21:34.698Z,21.4
2018-06-30T07:22:34.507Z,21.42
2018-06-30T07:23:34.434Z,21.42
2018-06-30T07:24:34.830Z,21.4
2018-06-30T07:25:34.863Z,21.4
2018-06-30T07:26:34.694Z,21.4
2018-06-30T07:27:34.531Z,21.4
2018-06-30T07:28:34.366Z,21.4
2018-06-30T07:29:34.564Z,21.39
2018-06-30T07:30:34.523Z,21.38
2018-06-30T07:31:34.728Z,21.42
2018-06-30T07:32:34.469Z,21.39
2018-06-30T07:33:34.548Z,21.39
2018-06-30T07:34:34.428Z,21.39
2018-06-30T07:35:34.538Z,21.43
2018-06-30T07:36:34.550Z,21.46
2018-06-30T07:37:34.980Z,21.46
2018-06-30T07:38:34.723Z,21.44
2018-06-30T07:39:34.514Z,21.43
2018-06-30T07:40:34.595Z,21.43
2018-06-30T07:41:44.544Z,21.44
2018-06-30T07:42:34.875Z,21.42
2018-06-30T07:43:34.562Z,21.44
2018-06-30T07:44:34.562Z,21.42
2018-06-30T07:45:34.570Z,21.43
2018-06-30T07:46:34.465Z,21.42
2018-06-30T07:47:34.624Z,21.49
2018-06-30T07:48:34.434Z,21.46
2018-06-30T07:49:34.757Z,21.48
2018-06-30T07:50:34.534Z,21.45
2018-06-30T07:51:34.479Z,21.44
2018-06-30T07:52:34.579Z,21.44
2018-06-30T07:53:34.712Z,21.43
2018-06-30T07:54:34.486Z,21.45
2018-06-30T07:55:34.352Z,21.43
2018-06-30T07:56:34.568Z,21.42
2018-06-30T07:57:34.453Z,21.4
2018-06-30T07:58:34.592Z,21.44
2018-06-30T07:59:34.620Z,21.39
2018-06-30T08:00:34.556Z,21.4
2018-06-30T08:01:34.426Z,21.43
2018-06-30T08:02:34.576Z,21.42
2018-06-30T08:03:34.547Z,21.4
2018-06-30T08:04:34.397Z,21.42
2018-06-30T08:05:34.505Z,21.42
2018-06-30T08:06:34.765Z,21.39
2018-06-30T08:07:34.531Z,21.4
2018-06-30T08:08:34.528Z,21.42
2018-06-30T08:09:34.528Z,21.4
2018-06-30T08:10:34.367Z,21.42
2018-06-30T08:11:34.533Z,21.4
2018-06-30T08:12:34.706Z,21.42
2018-06-30T08:13:34.519Z,21.42
2018-06-30T08:14:34.795Z,21.42
2018-06-30T08:15:34.728Z,21.43
2018-06-30T08:16:34.415Z,21.47
2018-06-30T08:17:34.506Z,21.49
2018-06-30T08:18:34.431Z,21.49
2018-06-30T08:19:34.343Z,21.49
2018-06-30T08:20:34.446Z,21.46
2018-06-30T08:21:34.432Z,21.48
2018-06-30T08:22:34.568Z,21.46
2018-06-30T08:23:34.598Z,21.46
2018-06-30T08:24:34.400Z,21.42
2018-06-30T08:25:34.402Z,21.45
2018-06-30T08:26:34.496Z,21.44
2018-06-30T08:27:34.520Z,21.44
2018-06-30T08:28:34.286Z,21.44
2018-06-30T08:29:35.029Z,21.43
2018-06-30T08:30:34.484Z,21.43
2018-06-30T08:31:34.634Z,21.45
2018-06-30T08:32:34.582Z,21.42
2018-06-30T08:33:34.611Z,21.43
2018-06-30T08:34:34.587Z,21.42
2018-06-30T08:35:34.572Z,21.42
2018-06-30T08:36:34.563Z,21.42
2018-06-30T08:37:34.387Z,21.43
2018-06-30T08:38:34.434Z,21.42
2018-06-30T08:39:34.380Z,21.43
2018-06-30T08:40:34.524Z,21.42
2018-06-30T08:41:34.485Z,21.43
2018-06-30T08:42:34.609Z,21.42
2018-06-30T08:43:34.365Z,21.42
2018-06-30T08:44:34.972Z,21.43
2018-06-30T08:45:34.608Z,21.42
2018-06-30T08:46:34.436Z,21.42
2018-06-30T08:47:34.441Z,21.39
2018-06-30T08:48:34.592Z,21.44
2018-06-30T08:49:34.875Z,21.43
2018-06-30T08:50:34.512Z,21.42
2018-06-30T08:51:34.549Z,21.42
2018-06-30T08:52:34.454Z,21.4
2018-06-30T08:53:34.493Z,21.42
2018-06-30T08:54:34.464Z,21.42
2018-06-30T08:55:45.263Z,21.4
2018-06-30T08:56:34.556Z,21.42
2018-06-30T08:57:34.524Z,21.42
2018-06-30T08:58:34.485Z,21.42
2018-06-30T08:59:34.894Z,21.42
2018-06-30T09:00:34.734Z,21.42
2018-06-30T09:01:34.616Z,21.42
2018-06-30T09:02:34.564Z,21.4
2018-06-30T09:03:34.901Z,21.43
2018-06-30T09:04:35.227Z,21.42
2018-06-30T09:05:34.515Z,21.42
2018-06-30T09:06:35.001Z,21.42
2018-06-30T09:07:34.547Z,21.42
2018-06-30T09:08:34.645Z,21.43
2018-06-30T09:09:34.356Z,21.42
2018-06-30T09:10:34.648Z,21.42
2018-06-30T09:11:34.448Z,21.4
2018-06-30T09:12:34.403Z,21.43
2018-06-30T09:13:34.536Z,21.42
2018-06-30T09:14:34.506Z,21.42
2018-06-30T09:15:34.581Z,21.43
2018-06-30T09:16:34.540Z,21.4
2018-06-30T09:17:34.383Z,21.42
2018-06-30T09:18:34.438Z,21.4
2018-06-30T09:19:34.395Z,21.4
2018-06-30T09:20:34.322Z,21.42
2018-06-30T09:21:34.712Z,21.42
2018-06-30T09:22:34.490Z,21.4
2018-06-30T09:23:34.619Z,21.44
2018-06-30T09:24:34.396Z,21.48
2018-06-30T09:25:34.535Z,21.49
2018-06-30T09:26:34.406Z,21.49
2018-06-30T09:27:34.535Z,21.53
2018-06-30T09:28:34.350Z,21.54
2018-06-30T09:29:34.331Z,21.59
2018-06-30T09:30:34.420Z,21.6
2018-06-30T09:31:34.589Z,21.63
2018-06-30T09:32:34.524Z,21.6
2018-06-30T09:33:34.556Z,21.63
2018-06-30T09:34:34.403Z,21.59
2018-06-30T09:35:34.318Z,21.58
2018-06-30T09:36:34.500Z,21.6
2018-06-30T09:37:34.397Z,21.58
2018-06-30T09:38:34.289Z,21.59
2018-06-30T09:39:34.403Z,21.65
2018-06-30T09:40:34.420Z,21.66
2018-06-30T09:41:34.404Z,21.66
2018-06-30T09:42:34.435Z,21.67
2018-06-30T09:43:34.668Z,21.66
2018-06-30T09:44:34.613Z,21.7
2018-06-30T09:45:34.677Z,21.7
2018-06-30T09:46:34.911Z,21.67
2018-06-30T09:47:34.364Z,21.66
2018-06-30T09:48:34.451Z,21.68
2018-06-30T09:49:34.752Z,21.66
2018-06-30T09:50:34.552Z,21.65
2018-06-30T09:51:34.630Z,21.66
2018-06-30T09:52:34.559Z,21.68
2018-06-30T09:53:34.418Z,21.65
2018-06-30T09:54:34.799Z,21.64
2018-06-30T09:55:34.535Z,21.64
2018-06-30T09:56:35.897Z,21.65
2018-06-30T09:57:34.776Z,21.64
2018-06-30T09:58:34.817Z,21.66
2018-06-30T09:59:34.519Z,21.66
2018-06-30T10:00:35.230Z,21.63
2018-06-30T10:01:34.857Z,21.66
2018-06-30T10:02:34.879Z,21.65
2018-06-30T10:03:34.570Z,21.65
2018-06-30T10:04:34.835Z,21.65
2018-06-30T10:05:34.363Z,21.66
2018-06-30T10:06:34.455Z,21.68
2018-06-30T10:07:34.903Z,21.66
2018-06-30T10:08:34.852Z,21.66
2018-06-30T10:09:34.540Z,21.68
2018-06-30T10:10:34.958Z,21.73
2018-06-30T10:11:34.879Z,21.77
2018-06-30T10:12:35.170Z,21.74
2018-06-30T10:13:34.573Z,21.75
2018-06-30T10:14:34.808Z,21.75
2018-06-30T10:15:34.372Z,21.74
2018-06-30T10:16:34.443Z,21.75
2018-06-30T10:17:35.233Z,21.76
2018-06-30T10:18:34.632Z,21.76
2018-06-30T10:19:35.041Z,21.76
2018-06-30T10:20:34.471Z,21.77
2018-06-30T10:21:34.506Z,21.77
2018-06-30T10:22:34.495Z,21.76
2018-06-30T10:23:34.843Z,21.77
2018-06-30T10:24:35.849Z,21.77
2018-06-30T10:25:34.484Z,21.76
2018-06-30T10:26:34.694Z,21.81
2018-06-30T10:27:34.687Z,21.82
2018-06-30T10:28:34.519Z,21.83
2018-06-30T10:29:34.875Z,21.83
2018-06-30T10:30:34.430Z,21.83
2018-06-30T10:31:34.935Z,21.84
2018-06-30T10:32:34.548Z,21.83
2018-06-30T10:33:34.561Z,21.81
2018-06-30T10:34:34.420Z,21.8
2018-06-30T10:35:34.491Z,21.77
2018-06-30T10:36:34.545Z,21.75
2018-06-30T10:37:35.018Z,21.72
2018-06-30T10:38:34.452Z,21.73
2018-06-30T10:39:34.462Z,21.73
2018-06-30T10:40:34.974Z,21.73
2018-06-30T10:41:34.508Z,21.7
2018-06-30T10:42:34.549Z,21.7
2018-06-30T10:43:34.331Z,21.68
2018-06-30T10:44:35.001Z,21.68
2018-06-30T10:45:34.574Z,21.68
2018-06-30T10:46:35.000Z,21.67
2018-06-30T10:47:34.367Z,21.67
2018-06-30T10:48:34.428Z,21.65
2018-06-30T10:49:35.019Z,21.67
2018-06-30T10:50:34.336Z,21.67
2018-06-30T10:51:34.414Z,21.66
2018-06-30T10:52:34.390Z,21.65
2018-06-30T10:53:34.513Z,21.66
2018-06-30T10:54:34.362Z,21.62
2018-06-30T10:55:34.423Z,21.64
2018-06-30T10:56:34.492Z,21.64
2018-06-30T10:57:34.528Z,21.63
2018-06-30T10:58:34.719Z,21.63
2018-06-30T10:59:34.648Z,21.63
2018-06-30T11:00:34.897Z,21.62
2018-06-30T11:01:34.474Z,21.62
2018-06-30T11:02:34.475Z,21.63
2018-06-30T11:03:34.518Z,21.63
2018-06-30T11:04:34.935Z,21.6
2018-06-30T11:05:34.616Z,21.62
2018-06-30T11:06:34.570Z,21.62
2018-06-30T11:07:34.346Z,21.61
2018-06-30T11:08:34.809Z,21.62
2018-06-30T11:09:34.565Z,21.6
2018-06-30T11:10:34.412Z,21.6
2018-06-30T11:11:34.524Z,21.6
2018-06-30T11:12:34.498Z,21.63
2018-06-30T11:13:34.483Z,21.61
2018-06-30T11:14:34.701Z,21.6
2018-06-30T11:15:36.543Z,21.6
2018-06-30T11:16:34.539Z,21.6
2018-06-30T11:17:34.826Z,21.59
2018-06-30T11:18:34.421Z,21.62
2018-06-30T11:19:34.385Z,21.6
2018-06-30T11:20:34.504Z,21.59
2018-06-30T11:21:34.503Z,21.6
2018-06-30T11:22:34.460Z,21.6
2018-06-30T11:23:34.470Z,21.6
2018-06-30T11:24:34.512Z,21.58
2018-06-30T11:25:34.471Z,21.61
2018-06-30T11:26:34.645Z,21.6
2018-06-30T11:27:34.358Z,21.59
2018-06-30T11:28:34.359Z,21.6
2018-06-30T11:29:35.211Z,21.6
2018-06-30T11:30:34.822Z,21.59
2018-06-30T11:31:34.570Z,21.6
2018-06-30T11:32:34.574Z,21.6
2018-06-30T11:33:34.549Z,21.58
2018-06-30T11:34:34.587Z,21.58
2018-06-30T11:35:34.453Z,21.59
2018-06-30T11:36:34.608Z,21.59
2018-06-30T11:37:44.429Z,21.58
2018-06-30T11:38:34.422Z,21.58
2018-06-30T11:39:34.444Z,21.59
2018-06-30T11:40:34.945Z,21.58
2018-06-30T11:41:34.441Z,21.58
2018-06-30T11:42:44.418Z,21.59
2018-06-30T11:43:34.582Z,21.58
2018-06-30T11:44:34.464Z,21.6
2018-06-30T11:45:34.478Z,21.58
2018-06-30T11:46:34.492Z,21.55
2018-06-30T11:47:44.486Z,21.57
2018-06-30T11:48:34.489Z,21.57
2018-06-30T11:49:34.498Z,21.57
2018-06-30T11:50:34.512Z,21.57
2018-06-30T11:51:34.529Z,21.58
2018-06-30T11:52:34.504Z,21.54
2018-06-30T11:53:34.617Z,21.58
2018-06-30T11:54:34.588Z,21.58
2018-06-30T11:55:34.551Z,21.59
2018-06-30T11:56:34.553Z,21.58
2018-06-30T11:57:34.603Z,21.55
2018-06-30T11:58:34.784Z,21.57
2018-06-30T11:59:34.582Z,21.58
2018-06-30T12:00:34.472Z,21.55
2018-06-30T12:01:34.368Z,21.58
2018-06-30T12:02:34.428Z,21.58
2018-06-30T12:03:34.956Z,21.54
2018-06-30T12:04:34.381Z,21.59
2018-06-30T12:05:34.531Z,21.55
2018-06-30T12:06:34.268Z,21.55
2018-06-30T12:07:34.365Z,21.57
2018-06-30T12:08:34.563Z,21.58
2018-06-30T12:09:34.454Z,21.58
2018-06-30T12:10:34.314Z,21.55
2018-06-30T12:11:34.667Z,21.57
2018-06-30T12:12:34.287Z,21.57
2018-06-30T12:13:34.376Z,21.58
2018-06-30T12:14:34.517Z,21.55
2018-06-30T12:15:34.308Z,21.55
2018-06-30T12:16:34.422Z,21.55
2018-06-30T12:17:34.555Z,21.57
2018-06-30T12:18:34.516Z,21.54
2018-06-30T12:19:34.441Z,21.55
2018-06-30T12:20:34.401Z,21.54
2018-06-30T12:21:34.487Z,21.55
2018-06-30T12:22:34.575Z,21.54
2018-06-30T12:23:34.317Z,21.55
2018-06-30T12:24:34.427Z,21.55
2018-06-30T12:25:34.533Z,21.57
2018-06-30T12:26:34.254Z,21.55
2018-06-30T12:27:34.348Z,21.55
2018-06-30T12:28:34.342Z,21.58
2018-06-30T12:29:34.254Z,21.55
2018-06-30T12:30:34.357Z,21.52
2018-06-30T12:31:34.522Z,21.55
2018-06-30T12:32:34.299Z,21.53
2018-06-30T12:33:34.384Z,21.54
2018-06-30T12:34:34.472Z,21.55
2018-06-30T12:35:34.237Z,21.54
2018-06-30T12:36:34.610Z,21.53
2018-06-30T12:37:44.581Z,21.55
2018-06-30T12:38:34.498Z,21.55
2018-06-30T12:39:34.568Z,21.55
2018-06-30T12:40:34.499Z,21.55
2018-06-30T12:41:34.450Z,21.54
2018-06-30T12:42:34.184Z,21.54
2018-06-30T12:43:34.666Z,21.54
2018-06-30T12:44:35.432Z,21.54
2018-06-30T12:45:34.593Z,21.51
2018-06-30T12:46:34.472Z,21.54
2018-06-30T12:47:34.482Z,21.53
2018-06-30T12:48:34.392Z,21.54
2018-06-30T12:49:34.235Z,21.54
2018-06-30T12:50:34.418Z,21.55
2018-06-30T12:51:34.225Z,21.53
2018-06-30T12:52:34.240Z,21.54
2018-06-30T12:53:34.392Z,21.55
2018-06-30T12:54:35.751Z,21.52
2018-06-30T12:55:34.437Z,21.53
2018-06-30T12:56:34.400Z,21.53